sensor_id;sensor_type;location;lat;lon;timestamp;P1;durP1;ratioP1;P2;durP2;ratioP2
82344;SDS011;72653;56.882;60.614;2023-10-08T00:00:26;4.40;;;3.08;;
82344;SDS011;72653;56.882;60.614;2023-10-08T00:03:10;8.35;;;5.97;;
82344;SDS011;72653;56.882;60.614;2023-10-08T00:05:36;7.22;;;4.15;;
82344;SDS011;72653;56.882;60.614;2023-10-08T00:08:02;10.15;;;3.47;;
82344;SDS011;72653;56.882;60.614;2023-10-08T00:10:36;6.55;;;3.15;;
82344;SDS011;72653;56.882;60.614;2023-10-08T00:13:10;9.65;;;4.65;;
82344;SDS011;72653;56.882;60.614;2023-10-08T00:15:36;5.88;;;3.38;;
82344;SDS011;72653;56.882;60.614;2023-10-08T00:18:05;4.22;;;3.83;;
82344;SDS011;72653;56.882;60.614;2023-10-08T00:20:34;5.45;;;4.13;;
82344;SDS011;72653;56.882;60.614;2023-10-08T00:23:09;8.25;;;3.38;;
82344;SDS011;72653;56.882;60.614;2023-10-08T00:25:35;9.18;;;5.57;;
82344;SDS011;72653;56.882;60.614;2023-10-08T00:28:07;8.30;;;3.83;;
82344;SDS011;72653;56.882;60.614;2023-10-08T00:30:38;11.52;;;5.28;;
82344;SDS011;72653;56.882;60.614;2023-10-08T00:33:04;6.55;;;4.65;;
82344;SDS011;72653;56.882;60.614;2023-10-08T00:35:30;4.20;;;2.97;;
82344;SDS011;72653;56.882;60.614;2023-10-08T00:37:55;5.18;;;3.08;;
82344;SDS011;72653;56.882;60.614;2023-10-08T00:40:35;4.47;;;3.63;;
82344;SDS011;72653;56.882;60.614;2023-10-08T00:43:02;4.40;;;2.55;;
82344;SDS011;72653;56.882;60.614;2023-10-08T00:45:36;4.60;;;4.15;;
82344;SDS011;72653;56.882;60.614;2023-10-08T00:48:08;3.63;;;2.85;;
82344;SDS011;72653;56.882;60.614;2023-10-08T00:50:34;7.43;;;3.72;;
82344;SDS011;72653;56.882;60.614;2023-10-08T00:53:08;6.13;;;3.45;;
82344;SDS011;72653;56.882;60.614;2023-10-08T00:55:46;4.68;;;3.67;;
82344;SDS011;72653;56.882;60.614;2023-10-08T00:58:18;4.72;;;4.30;;
82344;SDS011;72653;56.882;60.614;2023-10-08T01:00:53;3.63;;;2.85;;
82344;SDS011;72653;56.882;60.614;2023-10-08T01:03:25;6.30;;;3.42;;
82344;SDS011;72653;56.882;60.614;2023-10-08T01:05:53;4.93;;;3.65;;
82344;SDS011;72653;56.882;60.614;2023-10-08T01:08:18;6.00;;;4.10;;
82344;SDS011;72653;56.882;60.614;2023-10-08T01:11:23;5.40;;;3.55;;
82344;SDS011;72653;56.882;60.614;2023-10-08T01:14:12;7.22;;;4.18;;
82344;SDS011;72653;56.882;60.614;2023-10-08T01:16:37;5.15;;;4.45;;
82344;SDS011;72653;56.882;60.614;2023-10-08T01:21:37;6.85;;;4.43;;
82344;SDS011;72653;56.882;60.614;2023-10-08T01:24:05;8.52;;;2.95;;
82344;SDS011;72653;56.882;60.614;2023-10-08T01:26:33;16.08;;;6.38;;
82344;SDS011;72653;56.882;60.614;2023-10-08T01:28:59;12.85;;;4.03;;
82344;SDS011;72653;56.882;60.614;2023-10-08T01:31:32;7.15;;;3.85;;
82344;SDS011;72653;56.882;60.614;2023-10-08T01:33:58;6.25;;;3.78;;
82344;SDS011;72653;56.882;60.614;2023-10-08T01:36:27;4.40;;;3.72;;
82344;SDS011;72653;56.882;60.614;2023-10-08T01:38:53;4.93;;;3.65;;
82344;SDS011;72653;56.882;60.614;2023-10-08T01:41:20;13.10;;;4.40;;
82344;SDS011;72653;56.882;60.614;2023-10-08T01:44:06;10.07;;;4.00;;
82344;SDS011;72653;56.882;60.614;2023-10-08T01:46:33;5.25;;;3.30;;
82344;SDS011;72653;56.882;60.614;2023-10-08T01:49:00;5.40;;;3.58;;
82344;SDS011;72653;56.882;60.614;2023-10-08T01:51:30;4.30;;;3.90;;
82344;SDS011;72653;56.882;60.614;2023-10-08T01:54:03;7.20;;;5.95;;
82344;SDS011;72653;56.882;60.614;2023-10-08T01:56:36;10.50;;;5.65;;
82344;SDS011;72653;56.882;60.614;2023-10-08T02:01:29;5.22;;;4.13;;
82344;SDS011;72653;56.882;60.614;2023-10-08T02:03:55;6.07;;;3.70;;
82344;SDS011;72653;56.882;60.614;2023-10-08T02:06:21;4.60;;;3.72;;
82344;SDS011;72653;56.882;60.614;2023-10-08T02:08:47;15.93;;;4.55;;
82344;SDS011;72653;56.882;60.614;2023-10-08T02:11:13;3.92;;;3.17;;
82344;SDS011;72653;56.882;60.614;2023-10-08T02:13:41;4.38;;;3.58;;
82344;SDS011;72653;56.882;60.614;2023-10-08T02:16:07;6.55;;;4.63;;
82344;SDS011;72653;56.882;60.614;2023-10-08T02:18:33;2.67;;;2.40;;
82344;SDS011;72653;56.882;60.614;2023-10-08T02:20:59;5.07;;;4.57;;
82344;SDS011;72653;56.882;60.614;2023-10-08T02:23:24;7.20;;;4.28;;
82344;SDS011;72653;56.882;60.614;2023-10-08T02:25:50;6.35;;;5.75;;
82344;SDS011;72653;56.882;60.614;2023-10-08T02:28:16;5.20;;;3.53;;
82344;SDS011;72653;56.882;60.614;2023-10-08T02:30:45;8.20;;;4.38;;
82344;SDS011;72653;56.882;60.614;2023-10-08T02:33:11;9.23;;;4.78;;
82344;SDS011;72653;56.882;60.614;2023-10-08T02:35:40;15.98;;;3.95;;
82344;SDS011;72653;56.882;60.614;2023-10-08T02:38:11;7.47;;;4.88;;
82344;SDS011;72653;56.882;60.614;2023-10-08T02:40:41;7.60;;;3.72;;
82344;SDS011;72653;56.882;60.614;2023-10-08T02:43:12;5.53;;;4.40;;
82344;SDS011;72653;56.882;60.614;2023-10-08T02:45:39;3.13;;;2.50;;
82344;SDS011;72653;56.882;60.614;2023-10-08T02:48:08;4.18;;;3.22;;
82344;SDS011;72653;56.882;60.614;2023-10-08T02:50:41;3.35;;;3.05;;
82344;SDS011;72653;56.882;60.614;2023-10-08T02:53:07;5.07;;;3.17;;
82344;SDS011;72653;56.882;60.614;2023-10-08T02:55:43;6.30;;;2.90;;
82344;SDS011;72653;56.882;60.614;2023-10-08T02:58:14;8.00;;;3.97;;
82344;SDS011;72653;56.882;60.614;2023-10-08T03:00:43;3.85;;;3.40;;
82344;SDS011;72653;56.882;60.614;2023-10-08T03:03:12;7.55;;;5.55;;
82344;SDS011;72653;56.882;60.614;2023-10-08T03:05:44;4.32;;;3.28;;
82344;SDS011;72653;56.882;60.614;2023-10-08T03:08:15;6.03;;;3.25;;
82344;SDS011;72653;56.882;60.614;2023-10-08T03:10:45;4.80;;;3.22;;
82344;SDS011;72653;56.882;60.614;2023-10-08T03:13:11;6.65;;;3.45;;
82344;SDS011;72653;56.882;60.614;2023-10-08T03:18:13;3.55;;;2.58;;
82344;SDS011;72653;56.882;60.614;2023-10-08T03:20:40;5.57;;;4.25;;
82344;SDS011;72653;56.882;60.614;2023-10-08T03:23:13;4.45;;;2.47;;
82344;SDS011;72653;56.882;60.614;2023-10-08T03:25:59;10.75;;;3.55;;
82344;SDS011;72653;56.882;60.614;2023-10-08T03:28:26;14.75;;;4.30;;
82344;SDS011;72653;56.882;60.614;2023-10-08T03:30:56;8.20;;;4.95;;
82344;SDS011;72653;56.882;60.614;2023-10-08T03:33:34;10.73;;;5.20;;
82344;SDS011;72653;56.882;60.614;2023-10-08T03:36:01;8.57;;;5.35;;
82344;SDS011;72653;56.882;60.614;2023-10-08T03:38:34;15.30;;;4.00;;
82344;SDS011;72653;56.882;60.614;2023-10-08T03:41:23;4.40;;;3.38;;
82344;SDS011;72653;56.882;60.614;2023-10-08T03:43:56;11.30;;;4.13;;
82344;SDS011;72653;56.882;60.614;2023-10-08T03:46:31;12.77;;;4.78;;
82344;SDS011;72653;56.882;60.614;2023-10-08T03:49:00;5.88;;;3.53;;
82344;SDS011;72653;56.882;60.614;2023-10-08T03:51:30;7.18;;;5.05;;
82344;SDS011;72653;56.882;60.614;2023-10-08T03:54:00;4.80;;;3.38;;
82344;SDS011;72653;56.882;60.614;2023-10-08T03:56:43;9.13;;;5.97;;
82344;SDS011;72653;56.882;60.614;2023-10-08T03:59:14;3.08;;;2.10;;
82344;SDS011;72653;56.882;60.614;2023-10-08T04:01:45;9.60;;;5.90;;
82344;SDS011;72653;56.882;60.614;2023-10-08T04:04:14;10.20;;;3.75;;
82344;SDS011;72653;56.882;60.614;2023-10-08T04:06:40;6.20;;;5.38;;
82344;SDS011;72653;56.882;60.614;2023-10-08T04:09:14;13.63;;;5.78;;
82344;SDS011;72653;56.882;60.614;2023-10-08T04:11:46;4.63;;;2.90;;
82344;SDS011;72653;56.882;60.614;2023-10-08T04:14:14;7.10;;;5.10;;
82344;SDS011;72653;56.882;60.614;2023-10-08T04:16:41;4.47;;;3.35;;
82344;SDS011;72653;56.882;60.614;2023-10-08T04:19:07;6.40;;;3.78;;
82344;SDS011;72653;56.882;60.614;2023-10-08T04:21:33;4.03;;;3.45;;
82344;SDS011;72653;56.882;60.614;2023-10-08T04:23:59;4.85;;;3.45;;
82344;SDS011;72653;56.882;60.614;2023-10-08T04:26:33;9.30;;;4.05;;
82344;SDS011;72653;56.882;60.614;2023-10-08T04:28:59;7.18;;;4.65;;
82344;SDS011;72653;56.882;60.614;2023-10-08T04:31:28;4.45;;;3.97;;
82344;SDS011;72653;56.882;60.614;2023-10-08T04:34:07;5.35;;;3.70;;
82344;SDS011;72653;56.882;60.614;2023-10-08T04:36:50;5.95;;;3.00;;
82344;SDS011;72653;56.882;60.614;2023-10-08T04:39:23;5.82;;;4.10;;
82344;SDS011;72653;56.882;60.614;2023-10-08T04:42:00;4.07;;;2.97;;
82344;SDS011;72653;56.882;60.614;2023-10-08T04:44:49;6.00;;;3.85;;
82344;SDS011;72653;56.882;60.614;2023-10-08T04:47:15;2.70;;;2.03;;
82344;SDS011;72653;56.882;60.614;2023-10-08T04:50:00;9.30;;;2.28;;
82344;SDS011;72653;56.882;60.614;2023-10-08T04:52:29;3.28;;;2.25;;
82344;SDS011;72653;56.882;60.614;2023-10-08T04:54:55;3.40;;;3.00;;
82344;SDS011;72653;56.882;60.614;2023-10-08T04:57:21;4.45;;;1.55;;
82344;SDS011;72653;56.882;60.614;2023-10-08T04:59:48;1.63;;;1.38;;
82344;SDS011;72653;56.882;60.614;2023-10-08T05:02:15;3.80;;;3.28;;
82344;SDS011;72653;56.882;60.614;2023-10-08T05:04:44;6.50;;;2.90;;
82344;SDS011;72653;56.882;60.614;2023-10-08T05:07:16;4.85;;;2.88;;
82344;SDS011;72653;56.882;60.614;2023-10-08T05:09:46;5.60;;;3.30;;
82344;SDS011;72653;56.882;60.614;2023-10-08T05:12:32;1.85;;;1.35;;
82344;SDS011;72653;56.882;60.614;2023-10-08T05:14:58;1.88;;;1.63;;
82344;SDS011;72653;56.882;60.614;2023-10-08T05:17:46;2.28;;;1.75;;
82344;SDS011;72653;56.882;60.614;2023-10-08T05:20:14;2.15;;;1.83;;
82344;SDS011;72653;56.882;60.614;2023-10-08T05:23:10;6.93;;;3.35;;
82344;SDS011;72653;56.882;60.614;2023-10-08T05:25:55;5.50;;;1.60;;
82344;SDS011;72653;56.882;60.614;2023-10-08T05:28:33;3.60;;;2.70;;
82344;SDS011;72653;56.882;60.614;2023-10-08T05:31:12;5.20;;;3.20;;
82344;SDS011;72653;56.882;60.614;2023-10-08T05:33:44;2.65;;;2.45;;
82344;SDS011;72653;56.882;60.614;2023-10-08T05:36:29;2.90;;;1.73;;
82344;SDS011;72653;56.882;60.614;2023-10-08T05:39:13;3.60;;;2.65;;
82344;SDS011;72653;56.882;60.614;2023-10-08T05:41:58;5.38;;;2.88;;
82344;SDS011;72653;56.882;60.614;2023-10-08T05:44:44;2.03;;;1.45;;
82344;SDS011;72653;56.882;60.614;2023-10-08T05:47:32;1.60;;;1.50;;
82344;SDS011;72653;56.882;60.614;2023-10-08T05:49:58;2.50;;;1.50;;
82344;SDS011;72653;56.882;60.614;2023-10-08T05:55:23;6.47;;;2.05;;
82344;SDS011;72653;56.882;60.614;2023-10-08T05:57:52;1.90;;;1.35;;
82344;SDS011;72653;56.882;60.614;2023-10-08T06:00:28;4.50;;;2.33;;
82344;SDS011;72653;56.882;60.614;2023-10-08T06:03:00;2.53;;;2.17;;
82344;SDS011;72653;56.882;60.614;2023-10-08T06:05:49;2.33;;;2.08;;
82344;SDS011;72653;56.882;60.614;2023-10-08T06:08:34;3.03;;;2.10;;
82344;SDS011;72653;56.882;60.614;2023-10-08T06:11:37;2.42;;;1.48;;
82344;SDS011;72653;56.882;60.614;2023-10-08T06:14:07;2.72;;;2.35;;
82344;SDS011;72653;56.882;60.614;2023-10-08T06:16:39;2.75;;;1.73;;
82344;SDS011;72653;56.882;60.614;2023-10-08T06:19:12;2.28;;;1.67;;
82344;SDS011;72653;56.882;60.614;2023-10-08T06:21:38;3.05;;;1.98;;
82344;SDS011;72653;56.882;60.614;2023-10-08T06:24:07;2.83;;;1.58;;
82344;SDS011;72653;56.882;60.614;2023-10-08T06:26:42;1.98;;;1.40;;
82344;SDS011;72653;56.882;60.614;2023-10-08T06:29:09;2.10;;;1.77;;
82344;SDS011;72653;56.882;60.614;2023-10-08T06:31:45;2.55;;;2.35;;
82344;SDS011;72653;56.882;60.614;2023-10-08T06:34:16;2.00;;;1.23;;
82344;SDS011;72653;56.882;60.614;2023-10-08T06:36:41;8.65;;;3.25;;
82344;SDS011;72653;56.882;60.614;2023-10-08T06:39:07;1.20;;;0.88;;
82344;SDS011;72653;56.882;60.614;2023-10-08T06:41:37;2.60;;;1.58;;
82344;SDS011;72653;56.882;60.614;2023-10-08T06:44:03;2.80;;;2.53;;
82344;SDS011;72653;56.882;60.614;2023-10-08T06:46:29;3.08;;;1.80;;
82344;SDS011;72653;56.882;60.614;2023-10-08T06:49:01;2.00;;;1.50;;
82344;SDS011;72653;56.882;60.614;2023-10-08T06:51:27;1.85;;;1.20;;
82344;SDS011;72653;56.882;60.614;2023-10-08T06:53:55;1.33;;;0.93;;
82344;SDS011;72653;56.882;60.614;2023-10-08T06:56:25;2.42;;;1.17;;
82344;SDS011;72653;56.882;60.614;2023-10-08T06:58:50;1.80;;;1.60;;
82344;SDS011;72653;56.882;60.614;2023-10-08T07:01:19;4.72;;;2.22;;
82344;SDS011;72653;56.882;60.614;2023-10-08T07:03:55;2.08;;;1.67;;
82344;SDS011;72653;56.882;60.614;2023-10-08T07:06:29;3.50;;;1.27;;
82344;SDS011;72653;56.882;60.614;2023-10-08T07:08:59;1.45;;;0.93;;
82344;SDS011;72653;56.882;60.614;2023-10-08T07:11:30;2.10;;;1.75;;
82344;SDS011;72653;56.882;60.614;2023-10-08T07:14:02;1.67;;;1.10;;
82344;SDS011;72653;56.882;60.614;2023-10-08T07:16:32;2.33;;;1.40;;
82344;SDS011;72653;56.882;60.614;2023-10-08T07:18:58;1.65;;;1.15;;
82344;SDS011;72653;56.882;60.614;2023-10-08T07:21:27;1.45;;;1.05;;
82344;SDS011;72653;56.882;60.614;2023-10-08T07:24:05;4.10;;;2.42;;
82344;SDS011;72653;56.882;60.614;2023-10-08T07:26:35;3.28;;;1.95;;
82344;SDS011;72653;56.882;60.614;2023-10-08T07:29:11;1.63;;;1.27;;
82344;SDS011;72653;56.882;60.614;2023-10-08T07:31:38;1.50;;;1.35;;
82344;SDS011;72653;56.882;60.614;2023-10-08T07:34:07;1.13;;;0.80;;
82344;SDS011;72653;56.882;60.614;2023-10-08T07:37:05;25.73;;;2.30;;
82344;SDS011;72653;56.882;60.614;2023-10-08T07:39:36;1.88;;;0.90;;
82344;SDS011;72653;56.882;60.614;2023-10-08T07:42:10;1.77;;;1.38;;
82344;SDS011;72653;56.882;60.614;2023-10-08T07:44:36;5.60;;;1.65;;
82344;SDS011;72653;56.882;60.614;2023-10-08T07:47:04;1.83;;;0.90;;
82344;SDS011;72653;56.882;60.614;2023-10-08T07:49:30;1.50;;;1.10;;
82344;SDS011;72653;56.882;60.614;2023-10-08T07:51:59;3.75;;;3.15;;
82344;SDS011;72653;56.882;60.614;2023-10-08T07:54:25;1.70;;;1.10;;
82344;SDS011;72653;56.882;60.614;2023-10-08T07:56:53;3.60;;;1.52;;
82344;SDS011;72653;56.882;60.614;2023-10-08T07:59:39;1.35;;;0.85;;
82344;SDS011;72653;56.882;60.614;2023-10-08T08:02:23;1.83;;;0.93;;
82344;SDS011;72653;56.882;60.614;2023-10-08T08:04:52;1.40;;;1.15;;
82344;SDS011;72653;56.882;60.614;2023-10-08T08:07:18;1.08;;;0.93;;
82344;SDS011;72653;56.882;60.614;2023-10-08T08:09:49;2.75;;;1.45;;
82344;SDS011;72653;56.882;60.614;2023-10-08T08:14:44;1.85;;;1.00;;
82344;SDS011;72653;56.882;60.614;2023-10-08T08:17:10;2.65;;;1.00;;
82344;SDS011;72653;56.882;60.614;2023-10-08T08:19:45;1.00;;;0.80;;
82344;SDS011;72653;56.882;60.614;2023-10-08T08:22:18;1.48;;;1.00;;
82344;SDS011;72653;56.882;60.614;2023-10-08T08:24:50;1.60;;;1.42;;
82344;SDS011;72653;56.882;60.614;2023-10-08T08:27:39;1.40;;;0.85;;
82344;SDS011;72653;56.882;60.614;2023-10-08T08:30:05;1.23;;;1.13;;
82344;SDS011;72653;56.882;60.614;2023-10-08T08:32:41;1.23;;;0.80;;
82344;SDS011;72653;56.882;60.614;2023-10-08T08:35:09;1.58;;;1.27;;
82344;SDS011;72653;56.882;60.614;2023-10-08T08:37:35;1.80;;;1.52;;
82344;SDS011;72653;56.882;60.614;2023-10-08T08:40:04;1.50;;;1.38;;
82344;SDS011;72653;56.882;60.614;2023-10-08T08:42:50;2.15;;;1.83;;
82344;SDS011;72653;56.882;60.614;2023-10-08T08:45:21;4.53;;;1.88;;
82344;SDS011;72653;56.882;60.614;2023-10-08T08:47:47;1.90;;;1.48;;
82344;SDS011;72653;56.882;60.614;2023-10-08T08:50:12;13.65;;;2.38;;
82344;SDS011;72653;56.882;60.614;2023-10-08T08:52:39;3.08;;;1.50;;
82344;SDS011;72653;56.882;60.614;2023-10-08T08:55:05;3.92;;;1.85;;
82344;SDS011;72653;56.882;60.614;2023-10-08T08:57:43;1.98;;;1.65;;
82344;SDS011;72653;56.882;60.614;2023-10-08T09:00:14;2.00;;;1.30;;
82344;SDS011;72653;56.882;60.614;2023-10-08T09:05:10;5.07;;;1.20;;
82344;SDS011;72653;56.882;60.614;2023-10-08T09:07:59;1.67;;;1.48;;
82344;SDS011;72653;56.882;60.614;2023-10-08T09:10:29;2.15;;;1.63;;
82344;SDS011;72653;56.882;60.614;2023-10-08T09:12:58;1.58;;;1.08;;
82344;SDS011;72653;56.882;60.614;2023-10-08T09:15:24;1.20;;;0.95;;
82344;SDS011;72653;56.882;60.614;2023-10-08T09:17:51;1.50;;;0.75;;
82344;SDS011;72653;56.882;60.614;2023-10-08T09:20:17;1.40;;;1.25;;
82344;SDS011;72653;56.882;60.614;2023-10-08T09:22:45;2.00;;;1.80;;
82344;SDS011;72653;56.882;60.614;2023-10-08T09:25:20;1.27;;;0.88;;
82344;SDS011;72653;56.882;60.614;2023-10-08T09:27:50;1.10;;;0.68;;
82344;SDS011;72653;56.882;60.614;2023-10-08T09:30:18;2.50;;;2.05;;
82344;SDS011;72653;56.882;60.614;2023-10-08T09:32:44;5.72;;;1.25;;
82344;SDS011;72653;56.882;60.614;2023-10-08T09:35:10;1.63;;;1.15;;
82344;SDS011;72653;56.882;60.614;2023-10-08T09:37:39;1.88;;;1.25;;
82344;SDS011;72653;56.882;60.614;2023-10-08T09:40:05;1.52;;;1.00;;
82344;SDS011;72653;56.882;60.614;2023-10-08T09:42:36;3.10;;;1.50;;
82344;SDS011;72653;56.882;60.614;2023-10-08T09:45:03;1.20;;;1.00;;
82344;SDS011;72653;56.882;60.614;2023-10-08T09:47:31;1.52;;;1.38;;
82344;SDS011;72653;56.882;60.614;2023-10-08T09:50:02;1.35;;;0.80;;
82344;SDS011;72653;56.882;60.614;2023-10-08T09:55:09;1.55;;;0.73;;
82344;SDS011;72653;56.882;60.614;2023-10-08T09:57:39;1.33;;;1.08;;
82344;SDS011;72653;56.882;60.614;2023-10-08T10:00:05;1.70;;;1.60;;
82344;SDS011;72653;56.882;60.614;2023-10-08T10:02:36;1.13;;;0.88;;
82344;SDS011;72653;56.882;60.614;2023-10-08T10:05:02;1.75;;;1.30;;
82344;SDS011;72653;56.882;60.614;2023-10-08T10:07:29;1.20;;;0.90;;
82344;SDS011;72653;56.882;60.614;2023-10-08T10:09:55;2.03;;;1.20;;
82344;SDS011;72653;56.882;60.614;2023-10-08T10:12:24;1.90;;;1.35;;
82344;SDS011;72653;56.882;60.614;2023-10-08T10:14:52;2.88;;;1.50;;
82344;SDS011;72653;56.882;60.614;2023-10-08T10:17:21;1.05;;;0.98;;
82344;SDS011;72653;56.882;60.614;2023-10-08T10:19:57;5.82;;;1.17;;
82344;SDS011;72653;56.882;60.614;2023-10-08T10:22:31;1.50;;;1.10;;
82344;SDS011;72653;56.882;60.614;2023-10-08T10:25:01;1.23;;;0.90;;
82344;SDS011;72653;56.882;60.614;2023-10-08T10:27:41;1.38;;;0.98;;
82344;SDS011;72653;56.882;60.614;2023-10-08T10:30:08;1.77;;;1.42;;
82344;SDS011;72653;56.882;60.614;2023-10-08T10:32:37;1.23;;;0.80;;
82344;SDS011;72653;56.882;60.614;2023-10-08T10:35:04;2.53;;;1.38;;
82344;SDS011;72653;56.882;60.614;2023-10-08T10:40:08;0.98;;;0.70;;
82344;SDS011;72653;56.882;60.614;2023-10-08T10:42:38;1.20;;;0.75;;
82344;SDS011;72653;56.882;60.614;2023-10-08T10:45:14;1.67;;;0.70;;
82344;SDS011;72653;56.882;60.614;2023-10-08T10:48:00;1.38;;;1.15;;
82344;SDS011;72653;56.882;60.614;2023-10-08T10:50:45;1.35;;;0.95;;
82344;SDS011;72653;56.882;60.614;2023-10-08T10:53:42;0.90;;;0.68;;
82344;SDS011;72653;56.882;60.614;2023-10-08T10:56:25;1.17;;;0.65;;
82344;SDS011;72653;56.882;60.614;2023-10-08T10:59:01;2.67;;;1.80;;
82344;SDS011;72653;56.882;60.614;2023-10-08T11:01:44;1.15;;;0.88;;
82344;SDS011;72653;56.882;60.614;2023-10-08T11:04:12;1.35;;;0.90;;
82344;SDS011;72653;56.882;60.614;2023-10-08T11:06:44;0.93;;;0.68;;
82344;SDS011;72653;56.882;60.614;2023-10-08T11:09:10;1.60;;;1.30;;
82344;SDS011;72653;56.882;60.614;2023-10-08T11:11:42;1.00;;;0.57;;
82344;SDS011;72653;56.882;60.614;2023-10-08T11:14:11;1.17;;;1.00;;
82344;SDS011;72653;56.882;60.614;2023-10-08T11:16:45;1.20;;;0.95;;
82344;SDS011;72653;56.882;60.614;2023-10-08T11:19:11;1.67;;;0.77;;
82344;SDS011;72653;56.882;60.614;2023-10-08T11:21:53;0.82;;;0.55;;
82344;SDS011;72653;56.882;60.614;2023-10-08T11:24:31;5.20;;;0.75;;
82344;SDS011;72653;56.882;60.614;2023-10-08T11:27:01;1.02;;;0.75;;
82344;SDS011;72653;56.882;60.614;2023-10-08T11:29:48;1.30;;;1.08;;
82344;SDS011;72653;56.882;60.614;2023-10-08T11:32:16;1.95;;;0.80;;
82344;SDS011;72653;56.882;60.614;2023-10-08T11:34:54;1.80;;;1.15;;
82344;SDS011;72653;56.882;60.614;2023-10-08T11:37:29;2.78;;;2.10;;
82344;SDS011;72653;56.882;60.614;2023-10-08T11:39:55;0.93;;;0.60;;
82344;SDS011;72653;56.882;60.614;2023-10-08T11:42:26;1.05;;;0.63;;
82344;SDS011;72653;56.882;60.614;2023-10-08T11:44:57;2.10;;;1.70;;
82344;SDS011;72653;56.882;60.614;2023-10-08T11:47:43;3.45;;;1.45;;
82344;SDS011;72653;56.882;60.614;2023-10-08T11:50:11;1.15;;;0.88;;
82344;SDS011;72653;56.882;60.614;2023-10-08T11:52:41;1.40;;;1.13;;
82344;SDS011;72653;56.882;60.614;2023-10-08T11:55:08;1.77;;;1.55;;
82344;SDS011;72653;56.882;60.614;2023-10-08T11:57:34;1.02;;;0.82;;
82344;SDS011;72653;56.882;60.614;2023-10-08T12:00:01;23.23;;;1.45;;
82344;SDS011;72653;56.882;60.614;2023-10-08T12:02:43;1.30;;;0.90;;
82344;SDS011;72653;56.882;60.614;2023-10-08T12:05:09;1.33;;;1.23;;
82344;SDS011;72653;56.882;60.614;2023-10-08T12:07:47;3.05;;;1.70;;
82344;SDS011;72653;56.882;60.614;2023-10-08T12:10:13;1.25;;;0.77;;
82344;SDS011;72653;56.882;60.614;2023-10-08T12:12:39;6.55;;;2.72;;
82344;SDS011;72653;56.882;60.614;2023-10-08T12:15:06;2.97;;;1.20;;
82344;SDS011;72653;56.882;60.614;2023-10-08T12:17:34;1.85;;;1.52;;
82344;SDS011;72653;56.882;60.614;2023-10-08T12:20:05;2.38;;;1.42;;
82344;SDS011;72653;56.882;60.614;2023-10-08T12:22:50;1.45;;;0.85;;
82344;SDS011;72653;56.882;60.614;2023-10-08T12:25:16;1.40;;;1.20;;
82344;SDS011;72653;56.882;60.614;2023-10-08T12:27:42;1.92;;;0.90;;
82344;SDS011;72653;56.882;60.614;2023-10-08T12:30:08;1.70;;;1.00;;
82344;SDS011;72653;56.882;60.614;2023-10-08T12:32:39;1.40;;;1.23;;
82344;SDS011;72653;56.882;60.614;2023-10-08T12:35:08;1.98;;;1.27;;
82344;SDS011;72653;56.882;60.614;2023-10-08T12:37:42;1.20;;;0.80;;
82344;SDS011;72653;56.882;60.614;2023-10-08T12:40:09;1.33;;;0.82;;
82344;SDS011;72653;56.882;60.614;2023-10-08T12:42:51;1.95;;;1.75;;
82344;SDS011;72653;56.882;60.614;2023-10-08T12:45:17;1.55;;;1.15;;
82344;SDS011;72653;56.882;60.614;2023-10-08T12:47:54;3.47;;;1.63;;
82344;SDS011;72653;56.882;60.614;2023-10-08T12:50:20;2.25;;;2.05;;
82344;SDS011;72653;56.882;60.614;2023-10-08T12:52:55;1.40;;;1.00;;
82344;SDS011;72653;56.882;60.614;2023-10-08T12:55:21;0.73;;;0.52;;
82344;SDS011;72653;56.882;60.614;2023-10-08T12:57:52;4.43;;;1.38;;
82344;SDS011;72653;56.882;60.614;2023-10-08T13:00:22;1.50;;;1.10;;
82344;SDS011;72653;56.882;60.614;2023-10-08T13:02:49;1.10;;;1.00;;
82344;SDS011;72653;56.882;60.614;2023-10-08T13:05:21;1.30;;;1.00;;
82344;SDS011;72653;56.882;60.614;2023-10-08T13:07:54;2.05;;;1.00;;
82344;SDS011;72653;56.882;60.614;2023-10-08T13:10:19;1.95;;;1.02;;
82344;SDS011;72653;56.882;60.614;2023-10-08T13:12:47;1.15;;;0.98;;
82344;SDS011;72653;56.882;60.614;2023-10-08T13:15:13;2.15;;;1.10;;
82344;SDS011;72653;56.882;60.614;2023-10-08T13:17:39;1.40;;;1.10;;
82344;SDS011;72653;56.882;60.614;2023-10-08T13:20:11;1.48;;;1.33;;
82344;SDS011;72653;56.882;60.614;2023-10-08T13:22:38;4.43;;;1.00;;
82344;SDS011;72653;56.882;60.614;2023-10-08T13:25:04;1.20;;;1.10;;
82344;SDS011;72653;56.882;60.614;2023-10-08T13:27:30;1.02;;;0.77;;
82344;SDS011;72653;56.882;60.614;2023-10-08T13:29:56;3.70;;;1.33;;
82344;SDS011;72653;56.882;60.614;2023-10-08T13:32:21;0.82;;;0.80;;
82344;SDS011;72653;56.882;60.614;2023-10-08T13:34:47;1.02;;;0.85;;
82344;SDS011;72653;56.882;60.614;2023-10-08T13:37:13;1.42;;;0.98;;
82344;SDS011;72653;56.882;60.614;2023-10-08T13:39:41;1.95;;;1.08;;
82344;SDS011;72653;56.882;60.614;2023-10-08T13:42:07;1.23;;;0.98;;
82344;SDS011;72653;56.882;60.614;2023-10-08T13:44:34;1.10;;;0.82;;
82344;SDS011;72653;56.882;60.614;2023-10-08T13:47:00;0.93;;;0.60;;
82344;SDS011;72653;56.882;60.614;2023-10-08T13:49:31;1.38;;;1.02;;
82344;SDS011;72653;56.882;60.614;2023-10-08T13:51:57;1.10;;;0.70;;
82344;SDS011;72653;56.882;60.614;2023-10-08T13:54:23;1.75;;;1.27;;
82344;SDS011;72653;56.882;60.614;2023-10-08T13:56:58;1.83;;;1.05;;
82344;SDS011;72653;56.882;60.614;2023-10-08T13:59:27;0.88;;;0.52;;
82344;SDS011;72653;56.882;60.614;2023-10-08T14:01:56;0.70;;;0.57;;
82344;SDS011;72653;56.882;60.614;2023-10-08T14:04:22;1.00;;;0.80;;
82344;SDS011;72653;56.882;60.614;2023-10-08T14:06:59;0.88;;;0.63;;
82344;SDS011;72653;56.882;60.614;2023-10-08T14:09:25;3.97;;;1.67;;
82344;SDS011;72653;56.882;60.614;2023-10-08T14:12:01;0.77;;;0.50;;
82344;SDS011;72653;56.882;60.614;2023-10-08T14:14:27;1.55;;;1.02;;
82344;SDS011;72653;56.882;60.614;2023-10-08T14:16:55;0.90;;;0.55;;
82344;SDS011;72653;56.882;60.614;2023-10-08T14:19:25;1.20;;;1.10;;
82344;SDS011;72653;56.882;60.614;2023-10-08T14:22:04;2.40;;;1.33;;
82344;SDS011;72653;56.882;60.614;2023-10-08T14:24:30;2.50;;;1.02;;
82344;SDS011;72653;56.882;60.614;2023-10-08T14:27:00;1.98;;;1.23;;
82344;SDS011;72653;56.882;60.614;2023-10-08T14:29:29;0.85;;;0.50;;
82344;SDS011;72653;56.882;60.614;2023-10-08T14:31:54;1.13;;;0.70;;
82344;SDS011;72653;56.882;60.614;2023-10-08T14:34:22;0.80;;;0.80;;
82344;SDS011;72653;56.882;60.614;2023-10-08T14:37:11;0.70;;;0.60;;
82344;SDS011;72653;56.882;60.614;2023-10-08T14:39:54;1.20;;;0.70;;
82344;SDS011;72653;56.882;60.614;2023-10-08T14:42:38;0.98;;;0.90;;
82344;SDS011;72653;56.882;60.614;2023-10-08T14:45:25;0.90;;;0.63;;
82344;SDS011;72653;56.882;60.614;2023-10-08T14:47:56;0.85;;;0.60;;
82344;SDS011;72653;56.882;60.614;2023-10-08T14:50:23;1.25;;;0.90;;
82344;SDS011;72653;56.882;60.614;2023-10-08T14:52:53;0.82;;;0.55;;
82344;SDS011;72653;56.882;60.614;2023-10-08T14:55:18;1.20;;;1.05;;
82344;SDS011;72653;56.882;60.614;2023-10-08T14:57:46;2.03;;;1.20;;
82344;SDS011;72653;56.882;60.614;2023-10-08T15:00:12;1.77;;;1.55;;
82344;SDS011;72653;56.882;60.614;2023-10-08T15:02:39;1.58;;;1.38;;
82344;SDS011;72653;56.882;60.614;2023-10-08T15:05:05;1.40;;;1.27;;
82344;SDS011;72653;56.882;60.614;2023-10-08T15:07:31;1.27;;;0.73;;
82344;SDS011;72653;56.882;60.614;2023-10-08T15:09:58;1.23;;;1.08;;
82344;SDS011;72653;56.882;60.614;2023-10-08T15:12:28;1.25;;;1.15;;
82344;SDS011;72653;56.882;60.614;2023-10-08T15:15:00;1.23;;;0.90;;
82344;SDS011;72653;56.882;60.614;2023-10-08T15:17:26;1.20;;;0.77;;